createdAt,value
2023-04-11T00:02:25.015Z,6.20
2023-04-11T00:04:55.106Z,5.50
2023-04-11T00:07:22.940Z,6.67
2023-04-11T00:09:50.629Z,6.70
2023-04-11T00:12:18.306Z,7.07
2023-04-11T00:14:49.093Z,6.53
2023-04-11T00:17:17.701Z,6.73
2023-04-11T00:19:47.215Z,6.00
2023-04-11T00:22:16.144Z,6.00
2023-04-11T00:24:43.960Z,6.97
2023-04-11T00:27:11.675Z,5.80
2023-04-11T00:29:39.375Z,6.20
2023-04-11T00:32:07.870Z,6.47
2023-04-11T00:34:35.857Z,5.67
2023-04-11T00:37:05.003Z,7.47
2023-04-11T00:39:35.067Z,6.30
2023-04-11T00:42:07.795Z,5.70
2023-04-11T00:44:36.186Z,5.87
2023-04-11T00:47:06.296Z,5.87
2023-04-11T00:49:34.243Z,5.97
2023-04-11T00:52:02.630Z,6.13
2023-04-11T00:54:32.085Z,6.20
2023-04-11T00:57:01.029Z,6.23
2023-04-11T00:59:28.853Z,5.83
2023-04-11T01:01:57.162Z,6.67
2023-04-11T01:04:26.144Z,5.47
2023-04-11T01:06:57.147Z,5.90
2023-04-11T01:09:27.219Z,5.43
2023-04-11T01:11:57.804Z,6.47
2023-04-11T01:14:27.074Z,5.00
2023-04-11T01:16:56.517Z,5.90
2023-04-11T01:19:26.875Z,5.70
2023-04-11T01:21:56.728Z,5.80
2023-04-11T01:24:25.938Z,6.10
2023-04-11T01:26:53.847Z,5.90
2023-04-11T01:29:21.618Z,5.33
2023-04-11T01:31:50.356Z,5.13
2023-04-11T01:34:18.673Z,4.93
2023-04-11T01:36:46.811Z,5.40
2023-04-11T01:39:15.377Z,5.97
2023-04-11T01:41:45.420Z,6.03
2023-04-11T01:44:14.184Z,5.73
2023-04-11T01:46:43.256Z,5.50
2023-04-11T01:49:11.079Z,5.80
2023-04-11T01:51:38.875Z,5.27
2023-04-11T01:54:06.920Z,5.53
2023-04-11T01:56:34.682Z,5.60
2023-04-11T01:59:04.436Z,5.97
2023-04-11T02:01:32.314Z,5.53
2023-04-11T02:04:00.259Z,5.53
2023-04-11T02:06:28.530Z,5.70
2023-04-11T02:08:56.428Z,5.27
2023-04-11T02:11:24.291Z,6.13
2023-04-11T02:13:52.839Z,5.70
2023-04-11T02:16:25.848Z,5.20
2023-04-11T02:18:54.342Z,5.50
2023-04-11T02:21:22.498Z,5.30
2023-04-11T02:23:50.330Z,5.77
2023-04-11T02:26:18.113Z,5.43
2023-04-11T02:28:45.837Z,5.87
2023-04-11T02:31:13.624Z,5.10
2023-04-11T02:33:42.993Z,4.47
2023-04-11T02:36:12.494Z,3.87
2023-04-11T02:38:40.332Z,6.07
2023-04-11T02:41:08.753Z,5.03
2023-04-11T02:43:36.557Z,5.10
2023-04-11T02:46:12.577Z,5.20
2023-04-11T02:48:42.931Z,7.30
2023-04-11T02:51:10.680Z,5.50
2023-04-11T02:53:38.388Z,4.53
2023-04-11T02:56:07.781Z,5.53
2023-04-11T02:58:39.008Z,5.30
2023-04-11T03:01:07.978Z,6.03
2023-04-11T03:03:35.823Z,7.53
2023-04-11T03:06:06.821Z,6.57
2023-04-11T03:08:35.880Z,6.93
2023-04-11T03:11:03.808Z,8.70
2023-04-11T03:13:32.092Z,9.00
2023-04-11T03:15:59.979Z,8.33
2023-04-11T03:18:27.732Z,8.03
2023-04-11T03:20:56.053Z,8.77
2023-04-11T03:23:25.390Z,6.93
2023-04-11T03:25:53.725Z,5.77
2023-04-11T03:28:21.478Z,9.10
2023-04-11T03:30:50.566Z,6.83
2023-04-11T03:33:18.317Z,7.70
2023-04-11T03:35:46.100Z,8.37
2023-04-11T03:38:13.908Z,6.83
2023-04-11T03:40:43.076Z,8.53
2023-04-11T03:43:10.817Z,7.83
2023-04-11T03:45:38.557Z,7.33
2023-04-11T03:48:07.062Z,8.27
2023-04-11T03:50:34.918Z,7.33
2023-04-11T03:53:02.676Z,7.77
2023-04-11T03:55:30.409Z,8.10
2023-04-11T03:57:59.542Z,7.17
2023-04-11T04:00:28.297Z,8.07
2023-04-11T04:02:56.176Z,6.60
2023-04-11T04:05:24.130Z,8.10
2023-04-11T04:07:53.493Z,8.40
2023-04-11T04:10:22.269Z,9.20
2023-04-11T04:12:50.059Z,9.50
2023-04-11T04:15:19.412Z,10.83
2023-04-11T04:17:47.165Z,9.83
2023-04-11T04:20:14.972Z,7.40
2023-04-11T04:22:42.748Z,7.87
2023-04-11T04:25:12.668Z,8.50
2023-04-11T04:27:44.438Z,8.70
2023-04-11T04:30:15.727Z,9.30
2023-04-11T04:32:45.292Z,10.33
2023-04-11T04:35:14.185Z,10.73
2023-04-11T04:37:45.692Z,12.10
2023-04-11T04:40:15.948Z,10.63
2023-04-11T04:42:43.787Z,10.37
2023-04-11T04:45:11.883Z,10.30
2023-04-11T04:47:39.671Z,12.07
2023-04-11T04:50:09.961Z,11.93
2023-04-11T04:52:37.726Z,11.37
2023-04-11T04:55:06.330Z,12.50
2023-04-11T04:57:34.038Z,12.30
2023-04-11T05:00:01.811Z,11.77
2023-04-11T05:02:30.848Z,16.43
2023-04-11T05:05:04.131Z,13.37
2023-04-11T05:07:33.227Z,12.50
2023-04-11T05:10:00.868Z,16.40
2023-04-11T05:12:28.784Z,11.63
2023-04-11T05:14:57.611Z,11.20
2023-04-11T05:17:28.833Z,14.90
2023-04-11T05:19:56.580Z,13.63
2023-04-11T05:22:24.319Z,13.10
2023-04-11T05:24:53.453Z,11.63
2023-04-11T05:27:21.290Z,11.23
2023-04-11T05:29:49.019Z,12.63
2023-04-11T05:32:16.726Z,12.43
2023-04-11T05:34:58.833Z,12.00
2023-04-11T05:37:27.257Z,11.63
2023-04-11T05:39:56.384Z,10.80
2023-04-11T05:42:24.232Z,12.20
2023-04-11T05:44:51.930Z,10.87
2023-04-11T05:47:19.725Z,12.37
2023-04-11T05:49:48.665Z,13.40
2023-04-11T05:52:16.545Z,12.57
2023-04-11T05:54:44.267Z,10.87
2023-04-11T05:57:13.340Z,12.80
2023-04-11T05:59:41.115Z,11.20
2023-04-11T06:02:09.096Z,11.50
2023-04-11T06:04:37.114Z,12.03
2023-04-11T06:07:04.933Z,9.97
2023-04-11T06:09:34.081Z,10.67
2023-04-11T06:12:02.052Z,9.40
2023-04-11T06:14:31.133Z,9.47
2023-04-11T06:16:58.871Z,10.90
2023-04-11T06:19:26.626Z,10.90
2023-04-11T06:21:54.389Z,10.73
2023-04-11T06:24:36.005Z,12.63
2023-04-11T06:27:04.482Z,10.17
2023-04-11T06:29:33.698Z,10.07
2023-04-11T06:32:01.438Z,9.63
2023-04-11T06:34:29.241Z,8.80
2023-04-11T06:36:57.693Z,10.80
2023-04-11T06:39:25.741Z,10.90
2023-04-11T06:41:53.505Z,9.57
2023-04-11T06:44:21.277Z,10.23
2023-04-11T06:46:50.413Z,8.03
2023-04-11T06:49:18.927Z,8.77
2023-04-11T06:51:49.981Z,6.77
2023-04-11T06:54:18.185Z,6.63
2023-04-11T06:56:45.957Z,6.83
2023-04-11T06:59:13.750Z,4.60
2023-04-11T07:01:41.556Z,4.87
2023-04-11T07:04:10.862Z,2.53
2023-04-11T07:06:39.040Z,1.47
2023-04-11T07:09:07.428Z,2.60
2023-04-11T07:11:35.164Z,1.73
2023-04-11T07:14:03.555Z,1.60
2023-04-11T07:16:31.320Z,1.90
2023-04-11T07:19:00.062Z,2.10
2023-04-11T07:21:30.201Z,1.90
2023-04-11T07:23:58.035Z,2.00
2023-04-11T07:26:31.926Z,1.60
2023-04-11T07:28:59.841Z,3.00
2023-04-11T07:31:27.907Z,1.80
2023-04-11T07:33:55.941Z,1.40
2023-04-11T07:36:25.044Z,1.73
2023-04-11T07:38:54.185Z,1.63
2023-04-11T07:41:21.909Z,1.27
2023-04-11T07:43:49.641Z,1.17
2023-04-11T07:46:17.413Z,1.40
2023-04-11T07:48:45.154Z,1.23
2023-04-11T07:51:13.416Z,1.20
2023-04-11T07:53:41.176Z,1.53
2023-04-11T07:56:11.365Z,1.50
2023-04-11T07:58:39.114Z,2.30
2023-04-11T08:01:09.106Z,1.60
2023-04-11T08:03:37.095Z,2.67
2023-04-11T08:06:05.804Z,1.70
2023-04-11T08:08:33.561Z,2.90
2023-04-11T08:11:01.256Z,1.80
2023-04-11T08:13:30.354Z,1.90
2023-04-11T08:15:58.094Z,1.87
2023-04-11T08:18:26.021Z,3.13
2023-04-11T08:20:53.739Z,2.10
2023-04-11T08:23:22.742Z,3.53
2023-04-11T08:25:50.412Z,2.80
2023-04-11T08:28:18.221Z,3.50
2023-04-11T08:30:47.347Z,3.27
2023-04-11T08:33:15.762Z,2.13
2023-04-11T08:35:43.551Z,5.80
2023-04-11T08:38:11.414Z,3.87
2023-04-11T08:40:39.143Z,3.27
2023-04-11T08:43:11.965Z,3.73
2023-04-11T08:45:39.871Z,5.23
2023-04-11T08:48:09.518Z,3.63
2023-04-11T08:50:37.634Z,3.53
2023-04-11T08:53:05.702Z,2.90
2023-04-11T08:55:33.419Z,3.20
2023-04-11T08:58:02.941Z,3.70
2023-04-11T09:00:32.565Z,2.57
2023-04-11T09:03:02.140Z,5.40
2023-04-11T09:05:32.897Z,2.40
2023-04-11T09:08:02.228Z,2.87
2023-04-11T09:10:30.356Z,2.73
2023-04-11T09:12:58.912Z,3.10
2023-04-11T09:15:28.061Z,2.87
2023-04-11T09:18:00.366Z,3.50
2023-04-11T09:20:30.328Z,3.17
2023-04-11T09:23:00.242Z,3.93
2023-04-11T09:25:28.804Z,2.60
2023-04-11T09:28:08.810Z,3.17
2023-04-11T09:30:37.021Z,2.93
2023-04-11T09:33:21.424Z,3.40
2023-04-11T09:35:50.418Z,3.60
2023-04-11T09:38:30.831Z,3.27
2023-04-11T09:40:59.193Z,3.47
2023-04-11T09:43:27.668Z,4.77
2023-04-11T09:46:11.937Z,2.97
2023-04-11T09:51:12.677Z,3.70
2023-04-11T09:53:44.265Z,2.93
2023-04-11T09:56:12.313Z,3.40
2023-04-11T09:58:41.897Z,3.70
2023-04-11T10:01:11.493Z,2.53
2023-04-11T10:03:40.007Z,4.20
2023-04-11T10:06:11.090Z,2.70
2023-04-11T10:08:41.751Z,2.90
2023-04-11T10:11:14.603Z,2.83
2023-04-11T10:13:43.937Z,2.53
2023-04-11T10:16:13.478Z,3.37
2023-04-11T10:19:22.801Z,3.00
2023-04-11T10:21:50.625Z,4.03
2023-04-11T10:24:20.201Z,3.83
2023-04-11T10:26:52.096Z,3.50
2023-04-11T10:29:50.002Z,4.10
2023-04-11T10:32:24.467Z,6.00
2023-04-11T10:35:32.056Z,5.13
2023-04-11T10:37:59.840Z,6.00
2023-04-11T10:40:27.663Z,3.57
2023-04-11T10:42:57.454Z,3.23
2023-04-11T10:45:27.161Z,6.67
2023-04-11T10:48:07.780Z,4.37
2023-04-11T10:50:38.083Z,4.10
2023-04-11T10:53:07.443Z,4.63
2023-04-11T10:55:46.056Z,4.17
2023-04-11T10:58:16.739Z,4.40
2023-04-11T11:01:31.198Z,3.90
2023-04-11T11:04:05.769Z,4.13
2023-04-11T11:06:46.020Z,3.40
2023-04-11T11:09:24.363Z,2.93
2023-04-11T11:12:13.984Z,2.37
2023-04-11T11:14:44.990Z,1.87
2023-04-11T11:17:14.052Z,2.00
2023-04-11T11:19:45.247Z,1.70
2023-04-11T11:22:16.148Z,1.37
2023-04-11T11:24:43.920Z,1.60
2023-04-11T11:27:19.804Z,1.60
2023-04-11T11:29:49.012Z,1.27
2023-04-11T11:32:22.724Z,1.10
2023-04-11T11:34:52.690Z,1.30
2023-04-11T11:37:21.418Z,0.77
2023-04-11T11:39:50.026Z,1.33
2023-04-11T11:42:17.946Z,0.70
2023-04-11T11:44:45.842Z,1.30
2023-04-11T11:47:16.097Z,0.67
2023-04-11T11:49:45.689Z,0.60
2023-04-11T11:52:14.105Z,0.70
2023-04-11T11:54:45.508Z,0.80
2023-04-11T11:57:13.322Z,0.97
2023-04-11T11:59:41.393Z,0.90
2023-04-11T12:02:09.902Z,0.80
2023-04-11T12:04:39.246Z,0.60
2023-04-11T12:07:10.513Z,0.90
2023-04-11T12:09:38.239Z,0.80
2023-04-11T12:12:09.865Z,0.93
2023-04-11T12:14:37.630Z,1.57
2023-04-11T12:17:05.344Z,1.20
2023-04-11T12:19:33.044Z,0.87
2023-04-11T12:22:02.749Z,1.00
2023-04-11T12:24:30.541Z,1.00
2023-04-11T12:27:07.028Z,0.90
2023-04-11T12:29:35.741Z,1.77
2023-04-11T12:32:03.996Z,0.80
2023-04-11T12:34:31.706Z,1.00
2023-04-11T12:36:59.422Z,0.90
2023-04-11T12:39:28.491Z,1.03
2023-04-11T12:41:56.232Z,0.70
2023-04-11T12:44:24.005Z,0.70
2023-04-11T12:46:51.906Z,0.87
2023-04-11T12:49:19.667Z,0.90
2023-04-11T12:51:47.374Z,0.77
2023-04-11T12:54:15.173Z,0.40
2023-04-11T12:56:44.233Z,0.27
2023-04-11T12:59:11.973Z,0.53
2023-04-11T13:01:39.747Z,0.50
2023-04-11T13:04:07.727Z,1.13
2023-04-11T13:06:35.557Z,0.60
2023-04-11T13:09:05.931Z,0.90
2023-04-11T13:11:34.800Z,0.77
2023-04-11T13:14:04.046Z,1.70
2023-04-11T13:16:32.876Z,2.87
2023-04-11T13:19:01.294Z,0.60
2023-04-11T13:21:29.032Z,0.70
2023-04-11T13:23:56.997Z,1.10
2023-04-11T13:26:24.950Z,1.00
2023-04-11T13:28:52.697Z,0.80
2023-04-11T13:31:26.383Z,1.10
2023-04-11T13:33:54.247Z,2.43
2023-04-11T13:36:22.045Z,1.80
2023-04-11T13:38:51.384Z,1.60
2023-04-11T13:41:19.078Z,1.70
2023-04-11T13:43:46.797Z,1.67
2023-04-11T13:46:16.160Z,2.20
2023-04-11T13:48:45.293Z,1.93
2023-04-11T13:51:13.234Z,1.37
2023-04-11T13:53:41.194Z,3.60
2023-04-11T13:56:10.632Z,2.00
2023-04-11T13:58:39.112Z,2.17
2023-04-11T14:01:08.184Z,1.53
2023-04-11T14:03:36.130Z,0.90
2023-04-11T14:06:05.920Z,0.90
2023-04-11T14:08:33.635Z,0.80
2023-04-11T14:11:01.447Z,0.80
2023-04-11T14:13:29.140Z,0.67
2023-04-11T14:16:07.915Z,0.80
2023-04-11T14:18:37.017Z,1.20
2023-04-11T14:21:07.315Z,1.20
2023-04-11T14:23:35.838Z,1.17
2023-04-11T14:26:03.621Z,1.50
2023-04-11T14:28:31.371Z,0.70
2023-04-11T14:30:59.205Z,1.43
2023-04-11T14:33:27.377Z,0.90
2023-04-11T14:35:55.097Z,0.90
2023-04-11T14:38:24.184Z,0.90
2023-04-11T14:40:51.899Z,0.80
2023-04-11T14:43:19.653Z,0.80
2023-04-11T14:45:47.882Z,0.93
2023-04-11T14:48:16.078Z,0.80
2023-04-11T14:50:43.826Z,0.67
2023-04-11T14:53:11.597Z,1.70
2023-04-11T14:55:42.764Z,2.07
2023-04-11T14:58:11.161Z,2.00
2023-04-11T15:00:38.951Z,1.50
2023-04-11T15:03:06.805Z,0.70
2023-04-11T15:05:34.698Z,1.23
2023-04-11T15:08:02.426Z,1.13
2023-04-11T15:10:31.917Z,1.43
2023-04-11T15:13:00.987Z,0.97
2023-04-11T15:15:28.731Z,0.87
2023-04-11T15:18:21.537Z,0.60
2023-04-11T15:20:49.574Z,0.90
2023-04-11T15:23:17.950Z,3.10
2023-04-11T15:25:46.156Z,0.60
2023-04-11T15:28:15.274Z,0.77
2023-04-11T15:30:48.337Z,4.97
2023-04-11T15:33:17.015Z,1.03
2023-04-11T15:35:45.794Z,0.90
2023-04-11T15:38:15.269Z,0.70
2023-04-11T15:40:43.163Z,1.70
2023-04-11T15:43:11.053Z,0.70
2023-04-11T15:45:40.507Z,0.80
2023-04-11T15:48:08.260Z,1.60
2023-04-11T15:50:35.980Z,1.27
2023-04-11T15:53:03.711Z,0.70
2023-04-11T15:55:32.866Z,2.30
2023-04-11T15:58:00.775Z,1.30
2023-04-11T16:00:28.674Z,1.70
2023-04-11T16:03:02.867Z,0.93
2023-04-11T16:05:32.027Z,0.70
2023-04-11T16:08:00.586Z,1.90
2023-04-11T16:10:30.027Z,1.90
2023-04-11T16:12:57.906Z,2.87
2023-04-11T16:15:25.632Z,2.30
2023-04-11T16:17:53.375Z,1.00
2023-04-11T16:20:22.754Z,2.43
2023-04-11T16:22:50.545Z,2.27
2023-04-11T16:25:21.023Z,1.00
2023-04-11T16:27:49.537Z,1.60
2023-04-11T16:30:17.451Z,2.73
2023-04-11T16:32:45.556Z,3.40
2023-04-11T16:35:13.325Z,1.30
2023-04-11T16:37:42.459Z,4.77
2023-04-11T16:40:11.487Z,2.00
2023-04-11T16:42:39.814Z,1.53
2023-04-11T16:45:09.122Z,1.50
2023-04-11T16:47:37.075Z,1.47
2023-04-11T16:50:05.732Z,1.03
2023-04-11T16:52:33.949Z,0.93
2023-04-11T16:55:03.503Z,3.60
2023-04-11T16:57:33.169Z,2.37
2023-04-11T17:00:06.248Z,1.13
2023-04-11T17:02:34.137Z,1.00
2023-04-11T17:05:01.968Z,1.23
2023-04-11T17:07:29.766Z,2.40
2023-04-11T17:09:57.493Z,1.50
2023-04-11T17:12:27.103Z,1.93
2023-04-11T17:14:55.978Z,0.87
2023-04-11T17:17:23.755Z,2.10
2023-04-11T17:19:51.516Z,0.87
2023-04-11T17:22:19.300Z,1.90
2023-04-11T17:24:47.025Z,2.33
2023-04-11T17:27:14.797Z,1.03
2023-04-11T17:29:43.925Z,2.73
2023-04-11T17:32:11.996Z,1.87
2023-04-11T17:34:39.703Z,1.00
2023-04-11T17:37:07.450Z,1.80
2023-04-11T17:39:36.655Z,1.20
2023-04-11T17:42:04.812Z,1.20
2023-04-11T17:44:32.602Z,3.00
2023-04-11T17:47:01.694Z,0.90
2023-04-11T17:49:29.516Z,1.10
2023-04-11T17:51:59.635Z,3.23
2023-04-11T17:54:27.757Z,0.80
2023-04-11T17:56:56.267Z,0.90
2023-04-11T17:59:25.505Z,0.80
2023-04-11T18:01:55.932Z,2.10
2023-04-11T18:04:25.388Z,1.23
2023-04-11T18:06:53.140Z,1.17
2023-04-11T18:09:20.879Z,1.03
2023-04-11T18:11:48.579Z,2.13
2023-04-11T18:14:16.250Z,1.67
2023-04-11T18:16:47.092Z,0.80
2023-04-11T18:19:14.819Z,1.10
2023-04-11T18:21:43.956Z,1.43
2023-04-11T18:24:11.656Z,1.20
2023-04-11T18:26:39.368Z,1.20
2023-04-11T18:29:07.071Z,1.03
2023-04-11T18:31:35.309Z,1.07
2023-04-11T18:34:03.814Z,2.37
2023-04-11T18:36:32.861Z,1.97
2023-04-11T18:39:02.016Z,3.40
2023-04-11T18:41:29.742Z,1.03
2023-04-11T18:43:57.747Z,2.00
2023-04-11T18:46:25.852Z,1.70
2023-04-11T18:48:54.010Z,2.03
2023-04-11T18:51:21.749Z,4.23
2023-04-11T18:53:49.491Z,2.47
2023-04-11T18:56:18.572Z,6.00
2023-04-11T18:58:48.688Z,1.23
2023-04-11T19:01:19.045Z,1.50
2023-04-11T19:03:47.018Z,1.10
2023-04-11T19:06:15.087Z,1.80
2023-04-11T19:08:42.824Z,1.33
2023-04-11T19:11:10.671Z,2.30
2023-04-11T19:13:39.883Z,1.20
2023-04-11T19:16:08.028Z,1.43
2023-04-11T19:18:35.814Z,1.30
2023-04-11T19:21:03.685Z,2.70
2023-04-11T19:23:31.415Z,1.37
2023-04-11T19:26:00.633Z,6.23
2023-04-11T19:28:28.399Z,1.43
2023-04-11T19:30:57.510Z,1.60
2023-04-11T19:33:26.128Z,1.77
2023-04-11T19:35:54.235Z,1.50
2023-04-11T19:38:22.347Z,4.10
2023-04-11T19:40:50.144Z,1.60
2023-04-11T19:43:17.864Z,1.33
2023-04-11T19:45:47.108Z,2.10
2023-04-11T19:48:16.958Z,1.70
2023-04-11T19:50:44.843Z,1.40
2023-04-11T19:53:12.573Z,1.50
2023-04-11T19:55:41.118Z,4.53
2023-04-11T19:58:08.909Z,2.10
2023-04-11T20:00:38.496Z,1.30
2023-04-11T20:03:07.973Z,1.30
2023-04-11T20:05:37.305Z,1.90
2023-04-11T20:08:05.054Z,1.67
2023-04-11T20:10:34.126Z,1.83
2023-04-11T20:13:01.909Z,1.80
2023-04-11T20:15:29.920Z,1.47
2023-04-11T20:17:57.907Z,1.87
2023-04-11T20:20:27.923Z,3.03
2023-04-11T20:22:57.223Z,2.03
2023-04-11T20:25:25.060Z,2.13
2023-04-11T20:27:53.422Z,1.97
2023-04-11T20:30:21.830Z,1.27
2023-04-11T20:32:49.639Z,1.33
2023-04-11T20:35:19.246Z,2.47
2023-04-11T20:37:47.840Z,3.53
2023-04-11T20:40:17.594Z,1.53
2023-04-11T20:42:47.387Z,3.50
2023-04-11T20:45:17.258Z,2.83
2023-04-11T20:47:46.308Z,2.50
2023-04-11T20:50:15.792Z,2.80
2023-04-11T20:52:45.666Z,1.50
2023-04-11T20:55:15.614Z,1.53
2023-04-11T20:57:45.062Z,4.13
2023-04-11T21:00:14.546Z,3.13
2023-04-11T21:02:44.575Z,2.30
2023-04-11T21:05:12.982Z,2.83
2023-04-11T21:07:41.414Z,2.30
2023-04-11T21:10:10.520Z,3.70
2023-04-11T21:12:38.551Z,3.53
2023-04-11T21:15:09.054Z,2.77
2023-04-11T21:17:39.438Z,2.97
2023-04-11T21:20:11.082Z,2.37
2023-04-11T21:22:40.732Z,4.27
2023-04-11T21:25:09.525Z,3.93
2023-04-11T21:27:37.254Z,2.03
2023-04-11T21:30:06.422Z,3.53
2023-04-11T21:32:35.662Z,2.93
2023-04-11T21:35:04.107Z,4.73
2023-04-11T21:37:31.859Z,2.07
2023-04-11T21:39:59.568Z,2.70
2023-04-11T21:42:27.343Z,1.37
2023-04-11T21:44:55.077Z,1.30
2023-04-11T21:47:22.812Z,1.40
2023-04-11T21:49:51.941Z,1.40
2023-04-11T21:52:19.656Z,2.00
2023-04-11T21:54:47.484Z,1.80
2023-04-11T21:57:15.219Z,2.47
2023-04-11T21:59:43.016Z,2.10
2023-04-11T22:02:10.919Z,3.00
2023-04-11T22:04:51.176Z,2.20
2023-04-11T22:07:25.375Z,2.20
2023-04-11T22:09:58.242Z,2.67
2023-04-11T22:12:27.337Z,3.97
2023-04-11T22:14:56.640Z,4.03
2023-04-11T22:17:24.741Z,1.80
2023-04-11T22:19:52.490Z,7.20
2023-04-11T22:22:20.321Z,3.43
2023-04-11T22:24:50.229Z,5.43
2023-04-11T22:27:18.766Z,3.70
2023-04-11T22:29:47.032Z,4.30
2023-04-11T22:32:14.770Z,3.10
2023-04-11T22:34:42.465Z,5.87
2023-04-11T22:37:10.182Z,5.97
2023-04-11T22:39:37.928Z,5.17
2023-04-11T22:42:07.790Z,2.97
2023-04-11T22:44:35.504Z,4.83
2023-04-11T22:47:06.723Z,8.27
2023-04-11T22:49:40.179Z,3.87
2023-04-11T22:52:08.282Z,6.30
2023-04-11T22:54:36.177Z,4.90
2023-04-11T22:57:03.938Z,4.47
2023-04-11T22:59:33.380Z,5.13
2023-04-11T23:02:01.129Z,4.77
2023-04-11T23:04:28.968Z,5.50
2023-04-11T23:06:58.143Z,6.97
2023-04-11T23:09:26.368Z,4.47
2023-04-11T23:11:54.242Z,4.33
2023-04-11T23:14:22.281Z,3.50
2023-04-11T23:16:51.482Z,5.53
2023-04-11T23:19:19.877Z,10.10
2023-04-11T23:21:47.658Z,7.63
2023-04-11T23:24:15.870Z,6.67
2023-04-11T23:26:43.585Z,5.20
2023-04-11T23:29:12.148Z,9.17
2023-04-11T23:31:39.862Z,8.07
2023-04-11T23:34:08.990Z,9.50
2023-04-11T23:36:37.643Z,9.20
2023-04-11T23:39:05.720Z,6.87
2023-04-11T23:41:33.490Z,7.33
2023-04-11T23:44:01.193Z,6.60
2023-04-11T23:46:28.998Z,8.73
2023-04-11T23:48:56.958Z,11.30
2023-04-11T23:51:27.026Z,10.00
2023-04-11T23:53:54.752Z,9.37
2023-04-11T23:56:23.040Z,11.03
2023-04-11T23:58:50.782Z,10.43
